sensor_id;sensor_type;location;lat;lon;timestamp;temperature;humidity
74416;SHT31;62850;42.428;25.618;2023-06-10T00:02:26;19.29;60.78
74416;SHT31;62850;42.428;25.618;2023-06-10T00:04:52;19.33;60.50
74416;SHT31;62850;42.428;25.618;2023-06-10T00:07:17;19.35;60.74
74416;SHT31;62850;42.428;25.618;2023-06-10T00:09:43;19.39;60.67
74416;SHT31;62850;42.428;25.618;2023-06-10T00:12:09;19.33;60.76
74416;SHT31;62850;42.428;25.618;2023-06-10T00:14:39;19.30;60.56
74416;SHT31;62850;42.428;25.618;2023-06-10T00:17:06;19.27;61.00
74416;SHT31;62850;42.428;25.618;2023-06-10T00:19:34;19.36;59.75
74416;SHT31;62850;42.428;25.618;2023-06-10T00:22:00;19.33;59.64
74416;SHT31;62850;42.428;25.618;2023-06-10T00:24:26;19.36;60.28
74416;SHT31;62850;42.428;25.618;2023-06-10T00:26:51;19.42;59.54
74416;SHT31;62850;42.428;25.618;2023-06-10T00:29:17;19.43;59.91
74416;SHT31;62850;42.428;25.618;2023-06-10T00:31:45;19.46;59.97
74416;SHT31;62850;42.428;25.618;2023-06-10T00:34:12;19.52;59.62
74416;SHT31;62850;42.428;25.618;2023-06-10T00:36:37;19.45;59.98
74416;SHT31;62850;42.428;25.618;2023-06-10T00:39:03;19.50;60.27
74416;SHT31;62850;42.428;25.618;2023-06-10T00:41:30;19.49;60.29
74416;SHT31;62850;42.428;25.618;2023-06-10T00:43:56;19.49;60.02
74416;SHT31;62850;42.428;25.618;2023-06-10T00:46:23;19.42;60.23
74416;SHT31;62850;42.428;25.618;2023-06-10T00:48:49;19.37;59.90
74416;SHT31;62850;42.428;25.618;2023-06-10T00:51:16;19.37;59.96
74416;SHT31;62850;42.428;25.618;2023-06-10T00:53:42;19.35;60.41
74416;SHT31;62850;42.428;25.618;2023-06-10T00:56:08;19.26;60.53
74416;SHT31;62850;42.428;25.618;2023-06-10T00:58:34;19.32;60.52
74416;SHT31;62850;42.428;25.618;2023-06-10T01:01:01;19.26;60.65
74416;SHT31;62850;42.428;25.618;2023-06-10T01:03:27;19.25;60.76
74416;SHT31;62850;42.428;25.618;2023-06-10T01:11:08;19.18;60.48
74416;SHT31;62850;42.428;25.618;2023-06-10T01:13:40;19.19;60.61
74416;SHT31;62850;42.428;25.618;2023-06-10T01:16:06;19.14;61.11
74416;SHT31;62850;42.428;25.618;2023-06-10T01:18:33;19.08;61.02
74416;SHT31;62850;42.428;25.618;2023-06-10T01:20:58;19.09;61.07
74416;SHT31;62850;42.428;25.618;2023-06-10T01:23:24;19.02;61.62
74416;SHT31;62850;42.428;25.618;2023-06-10T01:25:55;18.96;61.41
74416;SHT31;62850;42.428;25.618;2023-06-10T01:28:45;18.84;62.00
74416;SHT31;62850;42.428;25.618;2023-06-10T01:31:33;18.84;61.95
74416;SHT31;62850;42.428;25.618;2023-06-10T01:34:03;18.79;62.13
74416;SHT31;62850;42.428;25.618;2023-06-10T01:36:33;18.78;62.03
74416;SHT31;62850;42.428;25.618;2023-06-10T01:39:00;18.84;61.81
74416;SHT31;62850;42.428;25.618;2023-06-10T01:41:27;18.88;61.62
74416;SHT31;62850;42.428;25.618;2023-06-10T01:43:54;18.88;61.30
74416;SHT31;62850;42.428;25.618;2023-06-10T01:46:20;18.89;61.90
74416;SHT31;62850;42.428;25.618;2023-06-10T01:48:46;18.83;62.09
74416;SHT31;62850;42.428;25.618;2023-06-10T01:51:12;18.72;62.24
74416;SHT31;62850;42.428;25.618;2023-06-10T01:53:37;18.64;62.81
74416;SHT31;62850;42.428;25.618;2023-06-10T01:56:03;18.68;62.10
74416;SHT31;62850;42.428;25.618;2023-06-10T01:58:29;18.65;62.73
74416;SHT31;62850;42.428;25.618;2023-06-10T02:00:54;18.58;62.79
74416;SHT31;62850;42.428;25.618;2023-06-10T02:03:19;18.54;63.05
74416;SHT31;62850;42.428;25.618;2023-06-10T02:05:45;18.57;62.87
74416;SHT31;62850;42.428;25.618;2023-06-10T02:08:11;18.48;63.27
74416;SHT31;62850;42.428;25.618;2023-06-10T02:10:36;18.46;63.29
74416;SHT31;62850;42.428;25.618;2023-06-10T02:13:02;18.43;63.50
74416;SHT31;62850;42.428;25.618;2023-06-10T02:15:27;18.46;63.56
74416;SHT31;62850;42.428;25.618;2023-06-10T02:17:53;18.38;63.43
74416;SHT31;62850;42.428;25.618;2023-06-10T02:20:20;18.33;63.73
74416;SHT31;62850;42.428;25.618;2023-06-10T02:22:46;18.27;64.08
74416;SHT31;62850;42.428;25.618;2023-06-10T02:25:12;18.34;63.64
74416;SHT31;62850;42.428;25.618;2023-06-10T02:27:37;18.36;63.77
74416;SHT31;62850;42.428;25.618;2023-06-10T02:30:03;18.32;63.93
74416;SHT31;62850;42.428;25.618;2023-06-10T02:32:29;18.26;63.90
74416;SHT31;62850;42.428;25.618;2023-06-10T02:34:54;18.26;63.97
74416;SHT31;62850;42.428;25.618;2023-06-10T02:37:20;18.17;64.05
74416;SHT31;62850;42.428;25.618;2023-06-10T02:39:46;18.18;63.69
74416;SHT31;62850;42.428;25.618;2023-06-10T02:42:11;18.26;63.11
74416;SHT31;62850;42.428;25.618;2023-06-10T02:44:37;18.20;63.50
74416;SHT31;62850;42.428;25.618;2023-06-10T02:47:03;18.29;63.09
74416;SHT31;62850;42.428;25.618;2023-06-10T02:49:29;18.32;63.29
74416;SHT31;62850;42.428;25.618;2023-06-10T02:51:54;18.37;63.04
74416;SHT31;62850;42.428;25.618;2023-06-10T02:54:25;18.40;62.97
74416;SHT31;62850;42.428;25.618;2023-06-10T02:56:51;18.41;63.27
74416;SHT31;62850;42.428;25.618;2023-06-10T02:59:18;18.38;62.64
74416;SHT31;62850;42.428;25.618;2023-06-10T03:01:46;18.44;62.22
74416;SHT31;62850;42.428;25.618;2023-06-10T03:04:11;18.58;62.22
74416;SHT31;62850;42.428;25.618;2023-06-10T03:06:39;18.61;63.17
74416;SHT31;62850;42.428;25.618;2023-06-10T03:09:06;18.67;62.67
74416;SHT31;62850;42.428;25.618;2023-06-10T03:11:33;18.71;62.83
74416;SHT31;62850;42.428;25.618;2023-06-10T03:13:58;18.77;62.30
74416;SHT31;62850;42.428;25.618;2023-06-10T03:16:24;18.83;62.11
74416;SHT31;62850;42.428;25.618;2023-06-10T03:18:50;18.81;62.55
74416;SHT31;62850;42.428;25.618;2023-06-10T03:21:16;18.74;62.64
74416;SHT31;62850;42.428;25.618;2023-06-10T03:23:42;18.75;62.35
74416;SHT31;62850;42.428;25.618;2023-06-10T03:26:07;18.85;62.34
74416;SHT31;62850;42.428;25.618;2023-06-10T03:28:35;18.94;61.91
74416;SHT31;62850;42.428;25.618;2023-06-10T03:31:00;18.95;62.67
74416;SHT31;62850;42.428;25.618;2023-06-10T03:33:26;18.99;62.93
74416;SHT31;62850;42.428;25.618;2023-06-10T03:35:52;19.08;62.31
74416;SHT31;62850;42.428;25.618;2023-06-10T03:38:17;19.12;63.41
74416;SHT31;62850;42.428;25.618;2023-06-10T03:40:43;19.15;63.04
74416;SHT31;62850;42.428;25.618;2023-06-10T03:43:08;19.22;63.25
74416;SHT31;62850;42.428;25.618;2023-06-10T03:45:34;19.26;63.00
74416;SHT31;62850;42.428;25.618;2023-06-10T03:48:01;19.35;63.17
74416;SHT31;62850;42.428;25.618;2023-06-10T03:50:26;19.40;62.68
74416;SHT31;62850;42.428;25.618;2023-06-10T03:52:52;19.49;63.43
74416;SHT31;62850;42.428;25.618;2023-06-10T03:55:17;19.62;62.70
74416;SHT31;62850;42.428;25.618;2023-06-10T03:57:43;19.63;63.19
74416;SHT31;62850;42.428;25.618;2023-06-10T04:00:09;19.64;63.66
74416;SHT31;62850;42.428;25.618;2023-06-10T04:02:37;19.66;63.35
74416;SHT31;62850;42.428;25.618;2023-06-10T04:05:07;19.67;63.31
74416;SHT31;62850;42.428;25.618;2023-06-10T04:07:32;19.75;63.49
74416;SHT31;62850;42.428;25.618;2023-06-10T04:09:59;19.78;63.81
74416;SHT31;62850;42.428;25.618;2023-06-10T04:12:25;19.81;63.98
74416;SHT31;62850;42.428;25.618;2023-06-10T04:14:50;19.85;64.16
74416;SHT31;62850;42.428;25.618;2023-06-10T04:17:17;19.85;64.15
74416;SHT31;62850;42.428;25.618;2023-06-10T04:19:42;19.95;63.63
74416;SHT31;62850;42.428;25.618;2023-06-10T04:22:08;20.03;63.51
74416;SHT31;62850;42.428;25.618;2023-06-10T04:24:33;20.12;63.29
74416;SHT31;62850;42.428;25.618;2023-06-10T04:26:59;20.20;63.31
74416;SHT31;62850;42.428;25.618;2023-06-10T04:29:25;20.29;62.95
74416;SHT31;62850;42.428;25.618;2023-06-10T04:31:51;20.39;62.52
74416;SHT31;62850;42.428;25.618;2023-06-10T04:34:16;20.48;62.28
74416;SHT31;62850;42.428;25.618;2023-06-10T04:36:42;20.65;62.08
74416;SHT31;62850;42.428;25.618;2023-06-10T04:39:07;20.75;61.20
74416;SHT31;62850;42.428;25.618;2023-06-10T04:41:33;20.84;60.99
74416;SHT31;62850;42.428;25.618;2023-06-10T04:43:58;20.97;59.44
74416;SHT31;62850;42.428;25.618;2023-06-10T04:46:24;21.14;60.52
74416;SHT31;62850;42.428;25.618;2023-06-10T04:48:50;21.30;59.35
74416;SHT31;62850;42.428;25.618;2023-06-10T04:51:15;21.44;59.59
74416;SHT31;62850;42.428;25.618;2023-06-10T04:53:42;21.52;59.49
74416;SHT31;62850;42.428;25.618;2023-06-10T04:56:07;21.61;60.88
74416;SHT31;62850;42.428;25.618;2023-06-10T04:58:34;21.61;59.96
74416;SHT31;62850;42.428;25.618;2023-06-10T05:01:00;21.71;59.03
74416;SHT31;62850;42.428;25.618;2023-06-10T05:03:26;21.69;59.56
74416;SHT31;62850;42.428;25.618;2023-06-10T05:05:51;21.74;58.83
74416;SHT31;62850;42.428;25.618;2023-06-10T05:08:17;21.78;58.88
74416;SHT31;62850;42.428;25.618;2023-06-10T05:10:43;21.81;58.88
74416;SHT31;62850;42.428;25.618;2023-06-10T05:13:08;21.86;57.90
74416;SHT31;62850;42.428;25.618;2023-06-10T05:15:34;21.81;56.76
74416;SHT31;62850;42.428;25.618;2023-06-10T05:17:59;21.81;56.79
74416;SHT31;62850;42.428;25.618;2023-06-10T05:20:25;21.89;56.56
74416;SHT31;62850;42.428;25.618;2023-06-10T05:22:51;21.92;56.39
74416;SHT31;62850;42.428;25.618;2023-06-10T05:25:16;21.96;56.09
74416;SHT31;62850;42.428;25.618;2023-06-10T05:27:42;22.05;56.61
74416;SHT31;62850;42.428;25.618;2023-06-10T05:30:09;22.05;56.70
74416;SHT31;62850;42.428;25.618;2023-06-10T05:32:35;22.09;57.25
74416;SHT31;62850;42.428;25.618;2023-06-10T05:35:01;22.08;56.63
74416;SHT31;62850;42.428;25.618;2023-06-10T05:37:26;22.16;56.30
74416;SHT31;62850;42.428;25.618;2023-06-10T05:39:52;22.16;57.11
74416;SHT31;62850;42.428;25.618;2023-06-10T05:42:17;22.28;56.87
74416;SHT31;62850;42.428;25.618;2023-06-10T05:44:43;22.40;57.02
74416;SHT31;62850;42.428;25.618;2023-06-10T05:47:09;22.53;56.10
74416;SHT31;62850;42.428;25.618;2023-06-10T05:49:34;22.54;55.08
74416;SHT31;62850;42.428;25.618;2023-06-10T05:52:00;22.64;55.49
74416;SHT31;62850;42.428;25.618;2023-06-10T05:54:26;22.75;55.91
74416;SHT31;62850;42.428;25.618;2023-06-10T05:56:52;22.78;56.02
74416;SHT31;62850;42.428;25.618;2023-06-10T05:59:17;22.83;56.29
74416;SHT31;62850;42.428;25.618;2023-06-10T06:01:42;22.88;56.71
74416;SHT31;62850;42.428;25.618;2023-06-10T06:04:08;22.94;56.86
74416;SHT31;62850;42.428;25.618;2023-06-10T06:06:35;22.99;57.02
74416;SHT31;62850;42.428;25.618;2023-06-10T06:09:00;23.02;58.13
74416;SHT31;62850;42.428;25.618;2023-06-10T06:11:26;23.05;54.96
74416;SHT31;62850;42.428;25.618;2023-06-10T06:13:51;22.99;54.85
74416;SHT31;62850;42.428;25.618;2023-06-10T06:16:17;23.09;55.41
74416;SHT31;62850;42.428;25.618;2023-06-10T06:18:43;23.16;54.91
74416;SHT31;62850;42.428;25.618;2023-06-10T06:21:09;23.23;53.99
74416;SHT31;62850;42.428;25.618;2023-06-10T06:23:34;23.25;53.95
74416;SHT31;62850;42.428;25.618;2023-06-10T06:26:00;23.29;54.31
74416;SHT31;62850;42.428;25.618;2023-06-10T06:28:26;23.26;53.88
74416;SHT31;62850;42.428;25.618;2023-06-10T06:30:55;23.25;54.78
74416;SHT31;62850;42.428;25.618;2023-06-10T06:33:21;23.22;54.27
74416;SHT31;62850;42.428;25.618;2023-06-10T06:35:46;23.28;54.28
74416;SHT31;62850;42.428;25.618;2023-06-10T06:38:12;23.36;53.95
74416;SHT31;62850;42.428;25.618;2023-06-10T06:40:37;23.46;53.98
74416;SHT31;62850;42.428;25.618;2023-06-10T06:43:03;23.59;54.94
74416;SHT31;62850;42.428;25.618;2023-06-10T06:45:28;23.66;54.61
74416;SHT31;62850;42.428;25.618;2023-06-10T06:47:54;23.70;53.53
74416;SHT31;62850;42.428;25.618;2023-06-10T06:50:21;23.86;53.47
74416;SHT31;62850;42.428;25.618;2023-06-10T06:52:46;24.00;53.62
74416;SHT31;62850;42.428;25.618;2023-06-10T06:55:11;24.15;51.80
74416;SHT31;62850;42.428;25.618;2023-06-10T06:57:37;24.35;52.59
74416;SHT31;62850;42.428;25.618;2023-06-10T07:00:03;24.52;53.57
74416;SHT31;62850;42.428;25.618;2023-06-10T07:02:29;24.59;53.20
74416;SHT31;62850;42.428;25.618;2023-06-10T07:04:57;24.72;52.47
74416;SHT31;62850;42.428;25.618;2023-06-10T07:07:24;24.80;52.54
74416;SHT31;62850;42.428;25.618;2023-06-10T07:09:49;24.95;52.78
74416;SHT31;62850;42.428;25.618;2023-06-10T07:12:15;25.07;51.29
74416;SHT31;62850;42.428;25.618;2023-06-10T07:14:40;25.16;48.14
74416;SHT31;62850;42.428;25.618;2023-06-10T07:17:06;24.85;44.70
74416;SHT31;62850;42.428;25.618;2023-06-10T07:19:31;25.12;45.48
74416;SHT31;62850;42.428;25.618;2023-06-10T07:21:57;25.40;48.18
74416;SHT31;62850;42.428;25.618;2023-06-10T07:24:22;25.65;47.69
74416;SHT31;62850;42.428;25.618;2023-06-10T07:26:48;25.91;44.93
74416;SHT31;62850;42.428;25.618;2023-06-10T07:29:13;25.67;39.44
74416;SHT31;62850;42.428;25.618;2023-06-10T07:31:40;25.57;39.41
74416;SHT31;62850;42.428;25.618;2023-06-10T07:34:06;25.34;39.78
74416;SHT31;62850;42.428;25.618;2023-06-10T07:36:31;25.34;39.52
74416;SHT31;62850;42.428;25.618;2023-06-10T07:38:57;25.41;39.13
74416;SHT31;62850;42.428;25.618;2023-06-10T07:41:23;25.44;40.15
74416;SHT31;62850;42.428;25.618;2023-06-10T07:43:51;25.47;40.24
74416;SHT31;62850;42.428;25.618;2023-06-10T07:46:21;25.30;40.22
74416;SHT31;62850;42.428;25.618;2023-06-10T07:48:47;25.54;40.69
74416;SHT31;62850;42.428;25.618;2023-06-10T07:51:12;25.64;40.30
74416;SHT31;62850;42.428;25.618;2023-06-10T07:53:38;25.70;39.79
74416;SHT31;62850;42.428;25.618;2023-06-10T07:56:03;25.81;40.46
74416;SHT31;62850;42.428;25.618;2023-06-10T07:58:29;26.02;39.76
74416;SHT31;62850;42.428;25.618;2023-06-10T08:00:54;25.72;39.52
74416;SHT31;62850;42.428;25.618;2023-06-10T08:03:20;25.96;39.74
74416;SHT31;62850;42.428;25.618;2023-06-10T08:05:45;26.33;39.38
74416;SHT31;62850;42.428;25.618;2023-06-10T08:08:11;26.63;39.41
74416;SHT31;62850;42.428;25.618;2023-06-10T08:10:36;26.74;38.84
74416;SHT31;62850;42.428;25.618;2023-06-10T08:13:02;26.71;38.36
74416;SHT31;62850;42.428;25.618;2023-06-10T08:15:27;26.91;38.71
74416;SHT31;62850;42.428;25.618;2023-06-10T08:17:53;26.69;38.61
74416;SHT31;62850;42.428;25.618;2023-06-10T08:20:18;26.54;38.08
74416;SHT31;62850;42.428;25.618;2023-06-10T08:22:44;26.80;39.01
74416;SHT31;62850;42.428;25.618;2023-06-10T08:25:09;26.95;38.41
74416;SHT31;62850;42.428;25.618;2023-06-10T08:27:35;27.31;38.90
74416;SHT31;62850;42.428;25.618;2023-06-10T08:30:01;27.50;38.07
74416;SHT31;62850;42.428;25.618;2023-06-10T08:32:26;27.22;38.59
74416;SHT31;62850;42.428;25.618;2023-06-10T08:34:52;27.41;38.40
74416;SHT31;62850;42.428;25.618;2023-06-10T08:37:17;27.50;38.65
74416;SHT31;62850;42.428;25.618;2023-06-10T08:39:43;27.56;38.62
74416;SHT31;62850;42.428;25.618;2023-06-10T08:42:34;27.56;38.15
74416;SHT31;62850;42.428;25.618;2023-06-10T08:45:02;27.25;39.51
74416;SHT31;62850;42.428;25.618;2023-06-10T08:47:29;27.24;39.67
74416;SHT31;62850;42.428;25.618;2023-06-10T08:50:02;27.37;39.10
74416;SHT31;62850;42.428;25.618;2023-06-10T08:52:33;27.46;38.81
74416;SHT31;62850;42.428;25.618;2023-06-10T08:55:00;27.45;38.72
74416;SHT31;62850;42.428;25.618;2023-06-10T08:57:29;27.38;38.94
74416;SHT31;62850;42.428;25.618;2023-06-10T08:59:56;27.39;39.34
74416;SHT31;62850;42.428;25.618;2023-06-10T09:02:23;27.29;39.45
74416;SHT31;62850;42.428;25.618;2023-06-10T09:04:49;26.92;39.67
74416;SHT31;62850;42.428;25.618;2023-06-10T09:07:16;26.86;40.06
74416;SHT31;62850;42.428;25.618;2023-06-10T09:09:44;27.05;39.11
74416;SHT31;62850;42.428;25.618;2023-06-10T09:12:12;26.91;39.47
74416;SHT31;62850;42.428;25.618;2023-06-10T09:14:38;26.81;40.14
74416;SHT31;62850;42.428;25.618;2023-06-10T09:17:05;26.63;41.10
74416;SHT31;62850;42.428;25.618;2023-06-10T09:19:31;26.86;41.58
74416;SHT31;62850;42.428;25.618;2023-06-10T09:21:57;26.94;41.16
74416;SHT31;62850;42.428;25.618;2023-06-10T09:24:23;26.71;41.54
74416;SHT31;62850;42.428;25.618;2023-06-10T09:26:49;26.59;42.01
74416;SHT31;62850;42.428;25.618;2023-06-10T09:29:16;26.42;42.18
74416;SHT31;62850;42.428;25.618;2023-06-10T09:31:43;26.46;41.96
74416;SHT31;62850;42.428;25.618;2023-06-10T09:34:11;26.13;42.69
74416;SHT31;62850;42.428;25.618;2023-06-10T09:36:37;25.86;43.82
74416;SHT31;62850;42.428;25.618;2023-06-10T09:39:03;25.99;44.10
74416;SHT31;62850;42.428;25.618;2023-06-10T09:41:35;26.01;44.11
74416;SHT31;62850;42.428;25.618;2023-06-10T09:44:01;25.82;44.48
74416;SHT31;62850;42.428;25.618;2023-06-10T09:46:31;25.92;44.05
74416;SHT31;62850;42.428;25.618;2023-06-10T09:49:00;26.01;43.46
74416;SHT31;62850;42.428;25.618;2023-06-10T09:51:25;26.12;42.30
74416;SHT31;62850;42.428;25.618;2023-06-10T09:53:51;26.30;41.93
74416;SHT31;62850;42.428;25.618;2023-06-10T09:56:17;26.06;40.62
74416;SHT31;62850;42.428;25.618;2023-06-10T09:58:45;26.15;40.72
74416;SHT31;62850;42.428;25.618;2023-06-10T10:01:13;26.12;39.81
74416;SHT31;62850;42.428;25.618;2023-06-10T10:03:46;26.32;39.75
74416;SHT31;62850;42.428;25.618;2023-06-10T10:06:12;26.44;38.57
74416;SHT31;62850;42.428;25.618;2023-06-10T10:08:39;26.28;38.15
74416;SHT31;62850;42.428;25.618;2023-06-10T10:11:04;26.36;37.77
74416;SHT31;62850;42.428;25.618;2023-06-10T10:13:33;26.37;39.32
74416;SHT31;62850;42.428;25.618;2023-06-10T10:16:03;26.32;39.16
74416;SHT31;62850;42.428;25.618;2023-06-10T10:18:29;26.21;38.69
74416;SHT31;62850;42.428;25.618;2023-06-10T10:20:57;26.18;38.44
74416;SHT31;62850;42.428;25.618;2023-06-10T10:23:32;26.05;38.82
74416;SHT31;62850;42.428;25.618;2023-06-10T10:26:00;26.03;39.36
74416;SHT31;62850;42.428;25.618;2023-06-10T10:28:36;26.21;39.51
74416;SHT31;62850;42.428;25.618;2023-06-10T10:31:08;26.09;40.00
74416;SHT31;62850;42.428;25.618;2023-06-10T10:33:45;26.13;40.39
74416;SHT31;62850;42.428;25.618;2023-06-10T10:36:14;26.02;40.34
74416;SHT31;62850;42.428;25.618;2023-06-10T10:38:40;26.03;41.47
74416;SHT31;62850;42.428;25.618;2023-06-10T10:41:06;25.84;41.14
74416;SHT31;62850;42.428;25.618;2023-06-10T10:43:32;25.75;41.23
74416;SHT31;62850;42.428;25.618;2023-06-10T10:45:59;25.86;41.19
74416;SHT31;62850;42.428;25.618;2023-06-10T10:48:26;25.81;40.28
74416;SHT31;62850;42.428;25.618;2023-06-10T10:50:57;25.68;40.19
74416;SHT31;62850;42.428;25.618;2023-06-10T10:53:24;25.70;41.16
74416;SHT31;62850;42.428;25.618;2023-06-10T10:56:07;25.55;40.78
74416;SHT31;62850;42.428;25.618;2023-06-10T10:58:35;25.57;40.71
74416;SHT31;62850;42.428;25.618;2023-06-10T11:01:13;25.70;40.41
74416;SHT31;62850;42.428;25.618;2023-06-10T11:03:46;25.58;39.75
74416;SHT31;62850;42.428;25.618;2023-06-10T11:06:16;25.64;39.60
74416;SHT31;62850;42.428;25.618;2023-06-10T11:11:24;25.93;39.47
74416;SHT31;62850;42.428;25.618;2023-06-10T11:16:29;26.19;40.68
74416;SHT31;62850;42.428;25.618;2023-06-10T11:18:56;26.21;41.02
74416;SHT31;62850;42.428;25.618;2023-06-10T11:21:25;26.39;40.04
74416;SHT31;62850;42.428;25.618;2023-06-10T11:23:53;26.47;41.28
74416;SHT31;62850;42.428;25.618;2023-06-10T11:31:24;27.87;36.00
74416;SHT31;62850;42.428;25.618;2023-06-10T11:34:04;28.08;35.76
74416;SHT31;62850;42.428;25.618;2023-06-10T11:36:31;27.97;33.86
74416;SHT31;62850;42.428;25.618;2023-06-10T11:38:58;27.76;34.64
74416;SHT31;62850;42.428;25.618;2023-06-10T11:41:25;28.04;35.19
74416;SHT31;62850;42.428;25.618;2023-06-10T11:43:52;27.96;34.47
74416;SHT31;62850;42.428;25.618;2023-06-10T11:46:18;28.11;35.33
74416;SHT31;62850;42.428;25.618;2023-06-10T11:48:53;28.58;34.85
74416;SHT31;62850;42.428;25.618;2023-06-10T11:51:19;28.91;34.82
74416;SHT31;62850;42.428;25.618;2023-06-10T11:53:45;29.20;33.46
74416;SHT31;62850;42.428;25.618;2023-06-10T11:56:11;28.98;33.00
74416;SHT31;62850;42.428;25.618;2023-06-10T11:58:36;29.00;33.30
74416;SHT31;62850;42.428;25.618;2023-06-10T12:01:02;28.92;33.31
74416;SHT31;62850;42.428;25.618;2023-06-10T12:03:38;29.25;32.97
74416;SHT31;62850;42.428;25.618;2023-06-10T12:06:05;29.37;33.22
74416;SHT31;62850;42.428;25.618;2023-06-10T12:08:32;29.51;31.71
74416;SHT31;62850;42.428;25.618;2023-06-10T12:10:58;29.49;32.72
74416;SHT31;62850;42.428;25.618;2023-06-10T12:13:27;29.51;33.00
74416;SHT31;62850;42.428;25.618;2023-06-10T12:15:53;29.58;33.04
74416;SHT31;62850;42.428;25.618;2023-06-10T12:18:23;29.82;33.19
74416;SHT31;62850;42.428;25.618;2023-06-10T12:20:49;29.88;32.86
74416;SHT31;62850;42.428;25.618;2023-06-10T12:23:17;29.80;32.70
74416;SHT31;62850;42.428;25.618;2023-06-10T12:25:50;29.91;32.55
74416;SHT31;62850;42.428;25.618;2023-06-10T12:28:18;29.82;33.36
74416;SHT31;62850;42.428;25.618;2023-06-10T12:30:45;29.49;33.98
74416;SHT31;62850;42.428;25.618;2023-06-10T12:33:18;29.57;34.33
74416;SHT31;62850;42.428;25.618;2023-06-10T12:35:48;29.57;35.63
74416;SHT31;62850;42.428;25.618;2023-06-10T12:38:21;29.40;34.33
74416;SHT31;62850;42.428;25.618;2023-06-10T12:40:47;29.42;35.39
74416;SHT31;62850;42.428;25.618;2023-06-10T12:43:13;29.53;35.20
74416;SHT31;62850;42.428;25.618;2023-06-10T12:45:44;29.81;34.30
74416;SHT31;62850;42.428;25.618;2023-06-10T12:50:40;29.80;35.65
74416;SHT31;62850;42.428;25.618;2023-06-10T12:53:07;29.51;34.45
74416;SHT31;62850;42.428;25.618;2023-06-10T12:55:33;28.96;35.68
74416;SHT31;62850;42.428;25.618;2023-06-10T12:57:59;28.75;35.63
74416;SHT31;62850;42.428;25.618;2023-06-10T13:00:25;28.69;37.00
74416;SHT31;62850;42.428;25.618;2023-06-10T13:02:52;28.55;38.25
74416;SHT31;62850;42.428;25.618;2023-06-10T13:05:18;28.62;37.53
74416;SHT31;62850;42.428;25.618;2023-06-10T13:07:45;28.58;37.43
74416;SHT31;62850;42.428;25.618;2023-06-10T13:10:15;28.58;37.10
74416;SHT31;62850;42.428;25.618;2023-06-10T13:12:42;28.40;37.99
74416;SHT31;62850;42.428;25.618;2023-06-10T13:15:08;28.33;37.33
74416;SHT31;62850;42.428;25.618;2023-06-10T13:17:33;28.40;38.62
74416;SHT31;62850;42.428;25.618;2023-06-10T13:20:03;28.31;37.98
74416;SHT31;62850;42.428;25.618;2023-06-10T13:22:30;28.33;37.48
74416;SHT31;62850;42.428;25.618;2023-06-10T13:25:01;28.34;38.80
74416;SHT31;62850;42.428;25.618;2023-06-10T13:27:28;28.04;37.44
74416;SHT31;62850;42.428;25.618;2023-06-10T13:29:53;27.93;37.75
74416;SHT31;62850;42.428;25.618;2023-06-10T13:32:19;27.86;39.32
74416;SHT31;62850;42.428;25.618;2023-06-10T13:34:44;27.96;39.45
74416;SHT31;62850;42.428;25.618;2023-06-10T13:37:10;27.97;40.27
74416;SHT31;62850;42.428;25.618;2023-06-10T13:39:38;28.13;39.06
74416;SHT31;62850;42.428;25.618;2023-06-10T13:42:04;28.29;39.80
74416;SHT31;62850;42.428;25.618;2023-06-10T13:44:29;28.20;39.28
74416;SHT31;62850;42.428;25.618;2023-06-10T13:46:59;28.18;38.68
74416;SHT31;62850;42.428;25.618;2023-06-10T13:49:24;28.20;38.49
74416;SHT31;62850;42.428;25.618;2023-06-10T13:51:50;28.29;40.00
74416;SHT31;62850;42.428;25.618;2023-06-10T13:54:15;28.40;39.21
74416;SHT31;62850;42.428;25.618;2023-06-10T13:56:41;28.33;40.43
74416;SHT31;62850;42.428;25.618;2023-06-10T13:59:06;28.21;39.45
74416;SHT31;62850;42.428;25.618;2023-06-10T14:01:32;28.22;39.13
74416;SHT31;62850;42.428;25.618;2023-06-10T14:03:57;28.37;39.18
74416;SHT31;62850;42.428;25.618;2023-06-10T14:06:24;28.36;39.66
74416;SHT31;62850;42.428;25.618;2023-06-10T14:08:49;28.38;39.44
74416;SHT31;62850;42.428;25.618;2023-06-10T14:11:15;28.74;38.98
74416;SHT31;62850;42.428;25.618;2023-06-10T14:13:40;29.13;36.84
74416;SHT31;62850;42.428;25.618;2023-06-10T14:16:06;29.44;36.00
74416;SHT31;62850;42.428;25.618;2023-06-10T14:18:31;29.53;36.57
74416;SHT31;62850;42.428;25.618;2023-06-10T14:20:57;29.68;34.84
74416;SHT31;62850;42.428;25.618;2023-06-10T14:23:22;29.84;35.66
74416;SHT31;62850;42.428;25.618;2023-06-10T14:25:49;29.98;34.27
74416;SHT31;62850;42.428;25.618;2023-06-10T14:28:15;30.16;34.65
74416;SHT31;62850;42.428;25.618;2023-06-10T14:30:40;30.23;34.95
74416;SHT31;62850;42.428;25.618;2023-06-10T14:33:06;30.08;34.66
74416;SHT31;62850;42.428;25.618;2023-06-10T14:35:31;29.74;35.41
74416;SHT31;62850;42.428;25.618;2023-06-10T14:37:57;29.47;34.66
74416;SHT31;62850;42.428;25.618;2023-06-10T14:40:22;29.31;35.19
74416;SHT31;62850;42.428;25.618;2023-06-10T14:42:49;28.94;35.03
74416;SHT31;62850;42.428;25.618;2023-06-10T14:45:15;28.47;35.75
74416;SHT31;62850;42.428;25.618;2023-06-10T14:47:40;28.20;35.34
74416;SHT31;62850;42.428;25.618;2023-06-10T14:50:06;28.03;36.23
74416;SHT31;62850;42.428;25.618;2023-06-10T14:52:32;27.71;37.19
74416;SHT31;62850;42.428;25.618;2023-06-10T14:54:57;27.35;39.68
74416;SHT31;62850;42.428;25.618;2023-06-10T14:57:23;27.14;40.71
74416;SHT31;62850;42.428;25.618;2023-06-10T14:59:48;27.22;41.13
74416;SHT31;62850;42.428;25.618;2023-06-10T15:02:14;27.43;41.19
74416;SHT31;62850;42.428;25.618;2023-06-10T15:04:39;27.58;41.04
74416;SHT31;62850;42.428;25.618;2023-06-10T15:07:05;27.55;40.44
74416;SHT31;62850;42.428;25.618;2023-06-10T15:09:31;27.74;40.60
74416;SHT31;62850;42.428;25.618;2023-06-10T15:11:57;27.99;40.50
74416;SHT31;62850;42.428;25.618;2023-06-10T15:14:24;28.28;40.60
74416;SHT31;62850;42.428;25.618;2023-06-10T15:16:51;28.01;39.54
74416;SHT31;62850;42.428;25.618;2023-06-10T15:19:17;27.93;39.81
74416;SHT31;62850;42.428;25.618;2023-06-10T15:21:42;28.13;39.86
74416;SHT31;62850;42.428;25.618;2023-06-10T15:24:08;28.10;40.09
74416;SHT31;62850;42.428;25.618;2023-06-10T15:26:33;28.01;39.29
74416;SHT31;62850;42.428;25.618;2023-06-10T15:28:59;28.03;39.94
74416;SHT31;62850;42.428;25.618;2023-06-10T15:31:29;27.93;40.96